Terminal Aerodrome Forecast
Issued by NWS Portland, ME

Home | Current Version | Previous Version | Text Only | Print | Product List | Glossary On
Versions: 1 2 3 4 5 6 7 8 9 10 11 12 13 14 15 16 17 18 19
000
FTUS41 KGYX 011623 AAB
TAFCON
TAF AMD
KCON 011623Z 0116/0212 36004KT 2SM -SHRA BR BKN008 OVC012
      TEMPO 0117/0119 1SM -SHRA BR BKN006
     FM020600 02003KT 1SM -DZ BR OVC004=

USA.gov is the U.S. government's official web portal to all federal, state and local government web resources and services.